sensor_id;sensor_type;location;lat;lon;timestamp;temperature;humidity
25949;DHT22;13961;51.178;4.448;2023-12-29T00:01:54;11.60;99.90
25949;DHT22;13961;51.178;4.448;2023-12-29T00:04:20;11.80;99.90
25949;DHT22;13961;51.178;4.448;2023-12-29T00:06:46;11.70;99.90
25949;DHT22;13961;51.178;4.448;2023-12-29T00:09:11;11.60;99.90
25949;DHT22;13961;51.178;4.448;2023-12-29T00:11:38;11.60;99.90
25949;DHT22;13961;51.178;4.448;2023-12-29T00:14:04;11.60;99.90
25949;DHT22;13961;51.178;4.448;2023-12-29T00:16:31;11.60;99.90
25949;DHT22;13961;51.178;4.448;2023-12-29T00:18:56;11.70;99.90
25949;DHT22;13961;51.178;4.448;2023-12-29T00:21:22;11.60;99.90
25949;DHT22;13961;51.178;4.448;2023-12-29T00:23:48;11.60;99.90
25949;DHT22;13961;51.178;4.448;2023-12-29T00:26:16;11.50;99.90
25949;DHT22;13961;51.178;4.448;2023-12-29T00:28:43;11.40;99.90
25949;DHT22;13961;51.178;4.448;2023-12-29T00:31:09;11.40;99.90
25949;DHT22;13961;51.178;4.448;2023-12-29T00:33:35;11.30;99.90
25949;DHT22;13961;51.178;4.448;2023-12-29T00:36:00;11.20;99.90
25949;DHT22;13961;51.178;4.448;2023-12-29T00:38:29;11.10;99.90
25949;DHT22;13961;51.178;4.448;2023-12-29T00:40:55;11.10;99.90
25949;DHT22;13961;51.178;4.448;2023-12-29T00:43:20;11.10;99.90
25949;DHT22;13961;51.178;4.448;2023-12-29T00:45:47;11.30;99.90
25949;DHT22;13961;51.178;4.448;2023-12-29T00:48:12;11.30;99.90
25949;DHT22;13961;51.178;4.448;2023-12-29T00:50:38;11.10;99.90
25949;DHT22;13961;51.178;4.448;2023-12-29T00:53:03;11.10;99.90
25949;DHT22;13961;51.178;4.448;2023-12-29T00:55:29;11.10;99.90
25949;DHT22;13961;51.178;4.448;2023-12-29T00:57:55;11.10;99.90
25949;DHT22;13961;51.178;4.448;2023-12-29T01:00:21;11.10;99.90
25949;DHT22;13961;51.178;4.448;2023-12-29T01:02:47;11.20;99.90
25949;DHT22;13961;51.178;4.448;2023-12-29T01:05:17;11.20;99.90
25949;DHT22;13961;51.178;4.448;2023-12-29T01:07:43;11.10;99.90
25949;DHT22;13961;51.178;4.448;2023-12-29T01:10:09;11.20;99.90
25949;DHT22;13961;51.178;4.448;2023-12-29T01:12:34;11.10;99.90
25949;DHT22;13961;51.178;4.448;2023-12-29T01:15:00;11.10;99.90
25949;DHT22;13961;51.178;4.448;2023-12-29T01:17:26;11.10;99.90
25949;DHT22;13961;51.178;4.448;2023-12-29T01:19:53;11.20;99.90
25949;DHT22;13961;51.178;4.448;2023-12-29T01:22:19;11.20;99.90
25949;DHT22;13961;51.178;4.448;2023-12-29T01:24:45;11.30;99.90
25949;DHT22;13961;51.178;4.448;2023-12-29T01:27:10;11.30;99.90
25949;DHT22;13961;51.178;4.448;2023-12-29T01:29:36;11.30;99.90
25949;DHT22;13961;51.178;4.448;2023-12-29T01:32:02;11.20;99.90
25949;DHT22;13961;51.178;4.448;2023-12-29T01:34:29;11.30;99.90
25949;DHT22;13961;51.178;4.448;2023-12-29T01:36:59;11.30;99.90
25949;DHT22;13961;51.178;4.448;2023-12-29T01:39:24;11.30;99.90
25949;DHT22;13961;51.178;4.448;2023-12-29T01:41:50;11.20;99.90
25949;DHT22;13961;51.178;4.448;2023-12-29T01:44:22;11.20;99.90
25949;DHT22;13961;51.178;4.448;2023-12-29T01:46:50;11.20;99.90
25949;DHT22;13961;51.178;4.448;2023-12-29T01:49:17;11.20;99.90
25949;DHT22;13961;51.178;4.448;2023-12-29T01:51:44;11.20;99.90
25949;DHT22;13961;51.178;4.448;2023-12-29T01:54:11;11.20;99.90
25949;DHT22;13961;51.178;4.448;2023-12-29T01:56:38;11.20;99.90
25949;DHT22;13961;51.178;4.448;2023-12-29T01:59:04;11.30;99.90
25949;DHT22;13961;51.178;4.448;2023-12-29T02:01:29;11.30;99.90
25949;DHT22;13961;51.178;4.448;2023-12-29T02:03:56;11.30;99.90
25949;DHT22;13961;51.178;4.448;2023-12-29T02:06:22;11.20;99.90
25949;DHT22;13961;51.178;4.448;2023-12-29T02:08:49;11.10;99.90
25949;DHT22;13961;51.178;4.448;2023-12-29T02:11:17;11.10;99.90
25949;DHT22;13961;51.178;4.448;2023-12-29T02:13:43;11.20;99.90
25949;DHT22;13961;51.178;4.448;2023-12-29T02:16:19;11.20;99.90
25949;DHT22;13961;51.178;4.448;2023-12-29T02:18:49;11.10;99.90
25949;DHT22;13961;51.178;4.448;2023-12-29T02:21:15;11.20;99.90
25949;DHT22;13961;51.178;4.448;2023-12-29T02:23:41;11.30;99.90
25949;DHT22;13961;51.178;4.448;2023-12-29T02:26:09;11.30;99.90
25949;DHT22;13961;51.178;4.448;2023-12-29T02:28:40;11.30;99.90
25949;DHT22;13961;51.178;4.448;2023-12-29T02:31:18;11.30;99.90
25949;DHT22;13961;51.178;4.448;2023-12-29T02:33:45;11.30;99.90
25949;DHT22;13961;51.178;4.448;2023-12-29T02:36:13;11.40;99.90
25949;DHT22;13961;51.178;4.448;2023-12-29T02:38:40;11.30;99.90
25949;DHT22;13961;51.178;4.448;2023-12-29T02:41:06;11.30;99.90
25949;DHT22;13961;51.178;4.448;2023-12-29T02:43:32;11.40;99.90
25949;DHT22;13961;51.178;4.448;2023-12-29T02:45:58;11.40;99.90
25949;DHT22;13961;51.178;4.448;2023-12-29T02:48:23;11.40;99.90
25949;DHT22;13961;51.178;4.448;2023-12-29T02:50:49;11.40;99.90
25949;DHT22;13961;51.178;4.448;2023-12-29T02:53:15;11.40;99.90
25949;DHT22;13961;51.178;4.448;2023-12-29T02:55:41;11.30;99.90
25949;DHT22;13961;51.178;4.448;2023-12-29T02:58:08;11.20;99.90
25949;DHT22;13961;51.178;4.448;2023-12-29T03:00:34;11.30;99.90
25949;DHT22;13961;51.178;4.448;2023-12-29T03:02:59;11.20;99.90
25949;DHT22;13961;51.178;4.448;2023-12-29T03:05:25;11.10;99.90
25949;DHT22;13961;51.178;4.448;2023-12-29T03:07:51;11.10;99.90
25949;DHT22;13961;51.178;4.448;2023-12-29T03:10:16;11.00;99.90
25949;DHT22;13961;51.178;4.448;2023-12-29T03:12:42;11.10;99.90
25949;DHT22;13961;51.178;4.448;2023-12-29T03:15:08;11.10;99.90
25949;DHT22;13961;51.178;4.448;2023-12-29T03:17:34;11.10;99.90
25949;DHT22;13961;51.178;4.448;2023-12-29T03:20:00;11.10;99.90
25949;DHT22;13961;51.178;4.448;2023-12-29T03:22:26;11.20;99.90
25949;DHT22;13961;51.178;4.448;2023-12-29T03:24:52;11.20;99.90
25949;DHT22;13961;51.178;4.448;2023-12-29T03:27:17;11.20;99.90
25949;DHT22;13961;51.178;4.448;2023-12-29T03:29:43;11.20;99.90
25949;DHT22;13961;51.178;4.448;2023-12-29T03:32:08;11.10;99.90
25949;DHT22;13961;51.178;4.448;2023-12-29T03:34:34;11.10;99.90
25949;DHT22;13961;51.178;4.448;2023-12-29T03:37:00;11.10;99.90
25949;DHT22;13961;51.178;4.448;2023-12-29T03:39:25;11.10;99.90
25949;DHT22;13961;51.178;4.448;2023-12-29T03:41:51;11.10;99.90
25949;DHT22;13961;51.178;4.448;2023-12-29T03:44:16;11.00;99.90
25949;DHT22;13961;51.178;4.448;2023-12-29T03:46:43;11.00;99.90
25949;DHT22;13961;51.178;4.448;2023-12-29T03:49:09;11.00;99.90
25949;DHT22;13961;51.178;4.448;2023-12-29T03:51:35;11.10;99.90
25949;DHT22;13961;51.178;4.448;2023-12-29T03:54:00;11.10;99.90
25949;DHT22;13961;51.178;4.448;2023-12-29T03:56:27;11.20;99.90
25949;DHT22;13961;51.178;4.448;2023-12-29T03:58:53;11.20;99.90
25949;DHT22;13961;51.178;4.448;2023-12-29T04:01:18;11.20;99.90
25949;DHT22;13961;51.178;4.448;2023-12-29T04:03:45;11.00;99.90
25949;DHT22;13961;51.178;4.448;2023-12-29T04:06:11;11.10;99.90
25949;DHT22;13961;51.178;4.448;2023-12-29T04:08:37;11.20;99.90
25949;DHT22;13961;51.178;4.448;2023-12-29T04:11:04;11.10;99.90
25949;DHT22;13961;51.178;4.448;2023-12-29T04:13:30;11.00;99.90
25949;DHT22;13961;51.178;4.448;2023-12-29T04:15:56;11.00;99.90
25949;DHT22;13961;51.178;4.448;2023-12-29T04:18:23;11.00;99.90
25949;DHT22;13961;51.178;4.448;2023-12-29T04:20:49;11.00;99.90
25949;DHT22;13961;51.178;4.448;2023-12-29T04:23:15;11.00;99.90
25949;DHT22;13961;51.178;4.448;2023-12-29T04:25:41;11.00;99.90
25949;DHT22;13961;51.178;4.448;2023-12-29T04:28:07;11.00;99.90
25949;DHT22;13961;51.178;4.448;2023-12-29T04:30:33;11.00;99.90
25949;DHT22;13961;51.178;4.448;2023-12-29T04:32:59;11.00;99.90
25949;DHT22;13961;51.178;4.448;2023-12-29T04:35:24;10.90;99.90
25949;DHT22;13961;51.178;4.448;2023-12-29T04:37:50;10.90;99.90
25949;DHT22;13961;51.178;4.448;2023-12-29T04:40:17;11.00;99.90
25949;DHT22;13961;51.178;4.448;2023-12-29T04:42:43;10.90;99.90
25949;DHT22;13961;51.178;4.448;2023-12-29T04:45:08;10.90;99.90
25949;DHT22;13961;51.178;4.448;2023-12-29T04:47:35;10.80;99.90
25949;DHT22;13961;51.178;4.448;2023-12-29T04:50:01;10.90;99.90
25949;DHT22;13961;51.178;4.448;2023-12-29T04:52:27;10.90;99.90
25949;DHT22;13961;51.178;4.448;2023-12-29T04:54:53;10.90;99.90
25949;DHT22;13961;51.178;4.448;2023-12-29T04:57:19;10.90;99.90
25949;DHT22;13961;51.178;4.448;2023-12-29T04:59:44;10.90;99.90
25949;DHT22;13961;51.178;4.448;2023-12-29T05:02:10;10.80;99.90
25949;DHT22;13961;51.178;4.448;2023-12-29T05:04:35;11.00;99.90
25949;DHT22;13961;51.178;4.448;2023-12-29T05:07:05;10.90;99.90
25949;DHT22;13961;51.178;4.448;2023-12-29T05:09:30;10.90;99.90
25949;DHT22;13961;51.178;4.448;2023-12-29T05:11:56;10.90;99.90
25949;DHT22;13961;51.178;4.448;2023-12-29T05:14:21;11.00;99.90
25949;DHT22;13961;51.178;4.448;2023-12-29T05:16:47;11.00;99.90
25949;DHT22;13961;51.178;4.448;2023-12-29T05:19:13;10.90;99.90
25949;DHT22;13961;51.178;4.448;2023-12-29T05:21:38;10.90;99.90
25949;DHT22;13961;51.178;4.448;2023-12-29T05:24:04;10.90;99.90
25949;DHT22;13961;51.178;4.448;2023-12-29T05:26:32;10.90;99.90
25949;DHT22;13961;51.178;4.448;2023-12-29T05:28:58;11.00;99.90
25949;DHT22;13961;51.178;4.448;2023-12-29T05:31:23;11.10;99.90
25949;DHT22;13961;51.178;4.448;2023-12-29T05:33:49;11.00;99.90
25949;DHT22;13961;51.178;4.448;2023-12-29T05:36:15;10.90;99.90
25949;DHT22;13961;51.178;4.448;2023-12-29T05:38:42;10.80;99.90
25949;DHT22;13961;51.178;4.448;2023-12-29T05:41:13;10.90;99.90
25949;DHT22;13961;51.178;4.448;2023-12-29T05:43:39;11.00;99.90
25949;DHT22;13961;51.178;4.448;2023-12-29T05:46:12;11.00;99.90
25949;DHT22;13961;51.178;4.448;2023-12-29T05:48:38;10.90;99.90
25949;DHT22;13961;51.178;4.448;2023-12-29T05:51:12;10.80;99.90
25949;DHT22;13961;51.178;4.448;2023-12-29T05:53:39;10.80;99.90
25949;DHT22;13961;51.178;4.448;2023-12-29T05:56:05;10.70;99.90
25949;DHT22;13961;51.178;4.448;2023-12-29T05:58:31;10.80;99.90
25949;DHT22;13961;51.178;4.448;2023-12-29T06:00:57;10.90;99.90
25949;DHT22;13961;51.178;4.448;2023-12-29T06:03:24;10.80;99.90
25949;DHT22;13961;51.178;4.448;2023-12-29T06:05:50;10.70;99.90
25949;DHT22;13961;51.178;4.448;2023-12-29T06:08:15;10.60;99.90
25949;DHT22;13961;51.178;4.448;2023-12-29T06:10:41;10.60;99.90
25949;DHT22;13961;51.178;4.448;2023-12-29T06:13:07;10.70;99.90
25949;DHT22;13961;51.178;4.448;2023-12-29T06:15:32;10.70;99.90
25949;DHT22;13961;51.178;4.448;2023-12-29T06:17:59;10.70;99.90
25949;DHT22;13961;51.178;4.448;2023-12-29T06:20:25;10.80;99.90
25949;DHT22;13961;51.178;4.448;2023-12-29T06:22:50;10.80;99.90
25949;DHT22;13961;51.178;4.448;2023-12-29T06:25:17;10.80;99.90
25949;DHT22;13961;51.178;4.448;2023-12-29T06:27:42;10.80;99.90
25949;DHT22;13961;51.178;4.448;2023-12-29T06:30:09;10.80;99.90
25949;DHT22;13961;51.178;4.448;2023-12-29T06:32:36;10.80;99.90
25949;DHT22;13961;51.178;4.448;2023-12-29T06:35:02;10.80;99.90
25949;DHT22;13961;51.178;4.448;2023-12-29T06:37:28;10.90;99.90
25949;DHT22;13961;51.178;4.448;2023-12-29T06:39:54;10.70;99.90
25949;DHT22;13961;51.178;4.448;2023-12-29T06:42:19;10.90;99.90
25949;DHT22;13961;51.178;4.448;2023-12-29T06:44:46;11.00;99.90
25949;DHT22;13961;51.178;4.448;2023-12-29T06:47:11;10.90;99.90
25949;DHT22;13961;51.178;4.448;2023-12-29T06:49:39;10.80;99.90
25949;DHT22;13961;51.178;4.448;2023-12-29T06:52:05;10.90;99.90
25949;DHT22;13961;51.178;4.448;2023-12-29T06:54:31;10.70;99.90
25949;DHT22;13961;51.178;4.448;2023-12-29T06:56:56;10.70;99.90
25949;DHT22;13961;51.178;4.448;2023-12-29T06:59:22;10.80;99.90
25949;DHT22;13961;51.178;4.448;2023-12-29T07:01:48;10.80;99.90
25949;DHT22;13961;51.178;4.448;2023-12-29T07:04:14;10.90;99.90
25949;DHT22;13961;51.178;4.448;2023-12-29T07:06:41;10.90;99.90
25949;DHT22;13961;51.178;4.448;2023-12-29T07:09:07;10.90;99.90
25949;DHT22;13961;51.178;4.448;2023-12-29T07:11:34;10.80;99.90
25949;DHT22;13961;51.178;4.448;2023-12-29T07:14:00;10.80;99.90
25949;DHT22;13961;51.178;4.448;2023-12-29T07:16:25;10.80;99.90
25949;DHT22;13961;51.178;4.448;2023-12-29T07:18:51;10.70;99.90
25949;DHT22;13961;51.178;4.448;2023-12-29T07:21:17;10.80;99.90
25949;DHT22;13961;51.178;4.448;2023-12-29T07:23:43;10.80;99.90
25949;DHT22;13961;51.178;4.448;2023-12-29T07:26:09;10.80;99.90
25949;DHT22;13961;51.178;4.448;2023-12-29T07:28:35;10.90;99.90
25949;DHT22;13961;51.178;4.448;2023-12-29T07:31:01;10.80;99.90
25949;DHT22;13961;51.178;4.448;2023-12-29T07:33:27;10.70;99.90
25949;DHT22;13961;51.178;4.448;2023-12-29T07:35:53;10.70;99.90
25949;DHT22;13961;51.178;4.448;2023-12-29T07:38:19;10.70;99.90
25949;DHT22;13961;51.178;4.448;2023-12-29T07:40:45;10.70;99.90
25949;DHT22;13961;51.178;4.448;2023-12-29T07:43:13;10.70;99.90
25949;DHT22;13961;51.178;4.448;2023-12-29T07:45:39;10.60;99.90
25949;DHT22;13961;51.178;4.448;2023-12-29T07:48:05;10.50;99.90
25949;DHT22;13961;51.178;4.448;2023-12-29T07:50:30;10.60;99.90
25949;DHT22;13961;51.178;4.448;2023-12-29T07:52:56;10.60;99.90
25949;DHT22;13961;51.178;4.448;2023-12-29T07:55:22;10.70;99.90
25949;DHT22;13961;51.178;4.448;2023-12-29T07:57:48;10.70;99.90
25949;DHT22;13961;51.178;4.448;2023-12-29T08:00:17;10.60;99.90
25949;DHT22;13961;51.178;4.448;2023-12-29T08:02:43;10.60;99.90
25949;DHT22;13961;51.178;4.448;2023-12-29T08:05:08;10.70;99.90
25949;DHT22;13961;51.178;4.448;2023-12-29T08:07:37;10.70;99.90
25949;DHT22;13961;51.178;4.448;2023-12-29T08:10:07;10.70;99.90
25949;DHT22;13961;51.178;4.448;2023-12-29T08:12:33;10.70;99.90
25949;DHT22;13961;51.178;4.448;2023-12-29T08:14:59;10.60;99.90
25949;DHT22;13961;51.178;4.448;2023-12-29T08:17:25;10.60;99.90
25949;DHT22;13961;51.178;4.448;2023-12-29T08:19:51;10.60;99.90
25949;DHT22;13961;51.178;4.448;2023-12-29T08:22:18;10.50;99.90
25949;DHT22;13961;51.178;4.448;2023-12-29T08:24:44;10.60;99.90
25949;DHT22;13961;51.178;4.448;2023-12-29T08:27:12;10.70;99.90
25949;DHT22;13961;51.178;4.448;2023-12-29T08:29:38;10.60;99.90
25949;DHT22;13961;51.178;4.448;2023-12-29T08:32:04;10.50;99.90
25949;DHT22;13961;51.178;4.448;2023-12-29T08:34:30;10.50;99.90
25949;DHT22;13961;51.178;4.448;2023-12-29T08:36:55;10.50;99.90
25949;DHT22;13961;51.178;4.448;2023-12-29T08:39:22;10.50;99.90
25949;DHT22;13961;51.178;4.448;2023-12-29T08:41:48;10.40;99.90
25949;DHT22;13961;51.178;4.448;2023-12-29T08:44:15;10.40;99.90
25949;DHT22;13961;51.178;4.448;2023-12-29T08:46:41;10.40;99.90
25949;DHT22;13961;51.178;4.448;2023-12-29T08:49:07;10.40;99.90
25949;DHT22;13961;51.178;4.448;2023-12-29T08:51:33;10.40;99.90
25949;DHT22;13961;51.178;4.448;2023-12-29T08:53:58;10.50;99.90
25949;DHT22;13961;51.178;4.448;2023-12-29T08:56:24;10.40;99.90
25949;DHT22;13961;51.178;4.448;2023-12-29T08:58:50;10.40;99.90
25949;DHT22;13961;51.178;4.448;2023-12-29T09:01:15;10.30;99.90
25949;DHT22;13961;51.178;4.448;2023-12-29T09:03:42;10.40;99.90
25949;DHT22;13961;51.178;4.448;2023-12-29T09:06:08;10.40;99.90
25949;DHT22;13961;51.178;4.448;2023-12-29T09:08:34;10.40;99.90
25949;DHT22;13961;51.178;4.448;2023-12-29T09:11:01;10.50;99.90
25949;DHT22;13961;51.178;4.448;2023-12-29T09:13:26;10.50;99.90
25949;DHT22;13961;51.178;4.448;2023-12-29T09:15:56;10.50;99.90
25949;DHT22;13961;51.178;4.448;2023-12-29T09:18:22;10.60;99.90
25949;DHT22;13961;51.178;4.448;2023-12-29T09:20:49;10.60;99.90
25949;DHT22;13961;51.178;4.448;2023-12-29T09:23:15;10.70;99.90
25949;DHT22;13961;51.178;4.448;2023-12-29T09:25:41;10.80;99.90
25949;DHT22;13961;51.178;4.448;2023-12-29T09:28:07;10.90;99.90
25949;DHT22;13961;51.178;4.448;2023-12-29T09:30:33;10.90;99.90
25949;DHT22;13961;51.178;4.448;2023-12-29T09:32:58;10.90;99.90
25949;DHT22;13961;51.178;4.448;2023-12-29T09:35:24;10.90;99.90
25949;DHT22;13961;51.178;4.448;2023-12-29T09:37:50;11.10;99.90
25949;DHT22;13961;51.178;4.448;2023-12-29T09:40:16;11.10;99.90
25949;DHT22;13961;51.178;4.448;2023-12-29T09:42:44;11.10;99.90
25949;DHT22;13961;51.178;4.448;2023-12-29T09:45:11;11.20;99.90
25949;DHT22;13961;51.178;4.448;2023-12-29T09:47:39;11.20;99.90
25949;DHT22;13961;51.178;4.448;2023-12-29T09:50:07;11.30;99.90
25949;DHT22;13961;51.178;4.448;2023-12-29T09:52:35;11.30;99.90
25949;DHT22;13961;51.178;4.448;2023-12-29T09:55:02;11.20;99.90
25949;DHT22;13961;51.178;4.448;2023-12-29T09:57:28;11.30;99.90
25949;DHT22;13961;51.178;4.448;2023-12-29T09:59:54;11.30;99.90
25949;DHT22;13961;51.178;4.448;2023-12-29T10:02:21;11.30;99.90
25949;DHT22;13961;51.178;4.448;2023-12-29T10:04:49;11.30;99.90
25949;DHT22;13961;51.178;4.448;2023-12-29T10:07:24;11.40;99.90
25949;DHT22;13961;51.178;4.448;2023-12-29T10:09:55;11.40;99.90
25949;DHT22;13961;51.178;4.448;2023-12-29T10:12:23;11.40;99.90
25949;DHT22;13961;51.178;4.448;2023-12-29T10:17:43;11.30;99.90
25949;DHT22;13961;51.178;4.448;2023-12-29T10:23:17;11.40;99.90
25949;DHT22;13961;51.178;4.448;2023-12-29T10:25:44;11.50;99.90
25949;DHT22;13961;51.178;4.448;2023-12-29T10:28:10;11.50;99.90
25949;DHT22;13961;51.178;4.448;2023-12-29T10:30:36;11.60;99.90
25949;DHT22;13961;51.178;4.448;2023-12-29T10:33:05;11.70;99.90
25949;DHT22;13961;51.178;4.448;2023-12-29T10:35:31;11.80;99.90
25949;DHT22;13961;51.178;4.448;2023-12-29T10:38:12;12.00;99.90
25949;DHT22;13961;51.178;4.448;2023-12-29T10:40:39;12.10;99.90
25949;DHT22;13961;51.178;4.448;2023-12-29T10:43:05;12.00;99.90
25949;DHT22;13961;51.178;4.448;2023-12-29T10:45:33;11.90;99.90
25949;DHT22;13961;51.178;4.448;2023-12-29T10:48:01;11.90;99.90
25949;DHT22;13961;51.178;4.448;2023-12-29T10:50:27;11.80;99.90
25949;DHT22;13961;51.178;4.448;2023-12-29T10:53:19;11.70;99.90
25949;DHT22;13961;51.178;4.448;2023-12-29T10:55:45;11.70;99.90
25949;DHT22;13961;51.178;4.448;2023-12-29T10:58:10;11.80;99.90
25949;DHT22;13961;51.178;4.448;2023-12-29T11:00:36;11.80;99.90
25949;DHT22;13961;51.178;4.448;2023-12-29T11:03:02;11.80;99.90
25949;DHT22;13961;51.178;4.448;2023-12-29T11:05:28;11.80;99.90
25949;DHT22;13961;51.178;4.448;2023-12-29T11:07:55;11.90;99.90
25949;DHT22;13961;51.178;4.448;2023-12-29T11:10:22;12.00;99.90
25949;DHT22;13961;51.178;4.448;2023-12-29T11:12:48;12.10;99.90
25949;DHT22;13961;51.178;4.448;2023-12-29T11:15:15;12.20;99.90
25949;DHT22;13961;51.178;4.448;2023-12-29T11:17:42;12.10;99.90
25949;DHT22;13961;51.178;4.448;2023-12-29T11:20:17;12.10;99.90
25949;DHT22;13961;51.178;4.448;2023-12-29T11:22:46;12.00;99.90
25949;DHT22;13961;51.178;4.448;2023-12-29T11:25:12;12.00;99.90
25949;DHT22;13961;51.178;4.448;2023-12-29T11:27:38;11.90;99.90
25949;DHT22;13961;51.178;4.448;2023-12-29T11:30:05;12.00;99.90
25949;DHT22;13961;51.178;4.448;2023-12-29T11:32:53;11.90;99.90
25949;DHT22;13961;51.178;4.448;2023-12-29T11:35:26;12.00;99.90
25949;DHT22;13961;51.178;4.448;2023-12-29T11:40:44;11.80;99.90
25949;DHT22;13961;51.178;4.448;2023-12-29T11:43:15;12.00;99.90
25949;DHT22;13961;51.178;4.448;2023-12-29T11:45:42;12.00;99.90
25949;DHT22;13961;51.178;4.448;2023-12-29T11:48:08;12.10;99.90
25949;DHT22;13961;51.178;4.448;2023-12-29T11:50:37;12.20;99.90
25949;DHT22;13961;51.178;4.448;2023-12-29T11:53:05;12.20;99.90
25949;DHT22;13961;51.178;4.448;2023-12-29T11:55:40;12.20;99.90
25949;DHT22;13961;51.178;4.448;2023-12-29T11:58:27;12.20;99.90
25949;DHT22;13961;51.178;4.448;2023-12-29T12:00:56;12.20;99.90
25949;DHT22;13961;51.178;4.448;2023-12-29T12:03:26;12.20;99.90
25949;DHT22;13961;51.178;4.448;2023-12-29T12:05:53;12.40;99.90
25949;DHT22;13961;51.178;4.448;2023-12-29T12:08:38;12.30;99.90
25949;DHT22;13961;51.178;4.448;2023-12-29T12:14:01;12.10;99.90
25949;DHT22;13961;51.178;4.448;2023-12-29T12:19:13;12.20;99.90
25949;DHT22;13961;51.178;4.448;2023-12-29T12:21:40;12.20;99.90
25949;DHT22;13961;51.178;4.448;2023-12-29T12:24:06;12.00;99.90
25949;DHT22;13961;51.178;4.448;2023-12-29T12:26:33;12.00;99.90
25949;DHT22;13961;51.178;4.448;2023-12-29T12:29:00;12.00;99.90
25949;DHT22;13961;51.178;4.448;2023-12-29T12:31:26;12.00;99.90
25949;DHT22;13961;51.178;4.448;2023-12-29T12:33:58;12.00;99.90
25949;DHT22;13961;51.178;4.448;2023-12-29T12:36:26;12.10;99.90
25949;DHT22;13961;51.178;4.448;2023-12-29T12:38:56;12.20;99.90
25949;DHT22;13961;51.178;4.448;2023-12-29T12:41:24;12.40;99.90
25949;DHT22;13961;51.178;4.448;2023-12-29T12:44:10;12.10;99.90
25949;DHT22;13961;51.178;4.448;2023-12-29T12:49:15;12.20;99.90
25949;DHT22;13961;51.178;4.448;2023-12-29T12:51:42;12.20;99.90
25949;DHT22;13961;51.178;4.448;2023-12-29T12:54:10;12.30;99.90
25949;DHT22;13961;51.178;4.448;2023-12-29T12:56:36;12.20;99.90
25949;DHT22;13961;51.178;4.448;2023-12-29T12:59:02;12.20;99.90
25949;DHT22;13961;51.178;4.448;2023-12-29T13:01:28;12.20;99.90
25949;DHT22;13961;51.178;4.448;2023-12-29T13:03:56;12.20;99.90
25949;DHT22;13961;51.178;4.448;2023-12-29T13:06:22;12.10;99.90
25949;DHT22;13961;51.178;4.448;2023-12-29T13:08:50;12.30;99.90
25949;DHT22;13961;51.178;4.448;2023-12-29T13:11:20;12.30;99.90
25949;DHT22;13961;51.178;4.448;2023-12-29T13:13:51;12.20;99.90
25949;DHT22;13961;51.178;4.448;2023-12-29T13:16:32;12.30;99.90
25949;DHT22;13961;51.178;4.448;2023-12-29T13:19:21;12.20;99.90
25949;DHT22;13961;51.178;4.448;2023-12-29T13:21:54;12.30;99.90
25949;DHT22;13961;51.178;4.448;2023-12-29T13:24:23;12.30;99.90
25949;DHT22;13961;51.178;4.448;2023-12-29T13:27:10;12.20;99.90
25949;DHT22;13961;51.178;4.448;2023-12-29T13:29:37;12.20;99.90
25949;DHT22;13961;51.178;4.448;2023-12-29T13:32:08;12.10;99.90
25949;DHT22;13961;51.178;4.448;2023-12-29T13:37:15;12.00;99.90
25949;DHT22;13961;51.178;4.448;2023-12-29T13:39:58;12.10;99.90
25949;DHT22;13961;51.178;4.448;2023-12-29T13:42:28;12.30;99.90
25949;DHT22;13961;51.178;4.448;2023-12-29T13:44:57;12.10;99.90
25949;DHT22;13961;51.178;4.448;2023-12-29T13:47:24;12.00;99.90
25949;DHT22;13961;51.178;4.448;2023-12-29T13:49:51;12.00;99.90
25949;DHT22;13961;51.178;4.448;2023-12-29T13:52:16;11.80;99.90
25949;DHT22;13961;51.178;4.448;2023-12-29T13:54:44;11.90;99.90
25949;DHT22;13961;51.178;4.448;2023-12-29T13:57:10;11.90;99.90
25949;DHT22;13961;51.178;4.448;2023-12-29T13:59:36;11.90;99.90
25949;DHT22;13961;51.178;4.448;2023-12-29T14:02:31;11.80;99.90
25949;DHT22;13961;51.178;4.448;2023-12-29T14:05:19;11.70;99.90
25949;DHT22;13961;51.178;4.448;2023-12-29T14:07:59;11.70;99.90
25949;DHT22;13961;51.178;4.448;2023-12-29T14:10:34;11.70;99.90
25949;DHT22;13961;51.178;4.448;2023-12-29T14:13:19;11.80;99.90
25949;DHT22;13961;51.178;4.448;2023-12-29T14:15:46;11.90;99.90
25949;DHT22;13961;51.178;4.448;2023-12-29T14:20:59;12.00;99.90
25949;DHT22;13961;51.178;4.448;2023-12-29T14:23:25;12.10;99.90
25949;DHT22;13961;51.178;4.448;2023-12-29T14:25:50;12.20;99.90
25949;DHT22;13961;51.178;4.448;2023-12-29T14:28:17;12.10;99.90
25949;DHT22;13961;51.178;4.448;2023-12-29T14:30:44;12.10;99.90
25949;DHT22;13961;51.178;4.448;2023-12-29T14:33:10;12.10;99.90
25949;DHT22;13961;51.178;4.448;2023-12-29T14:35:35;12.00;99.90
25949;DHT22;13961;51.178;4.448;2023-12-29T14:38:02;12.00;99.90
25949;DHT22;13961;51.178;4.448;2023-12-29T14:40:28;12.10;99.90
25949;DHT22;13961;51.178;4.448;2023-12-29T14:42:53;12.00;99.90
25949;DHT22;13961;51.178;4.448;2023-12-29T14:45:19;11.80;99.90
25949;DHT22;13961;51.178;4.448;2023-12-29T14:47:45;11.60;99.90
25949;DHT22;13961;51.178;4.448;2023-12-29T14:50:11;11.60;99.90
25949;DHT22;13961;51.178;4.448;2023-12-29T14:52:37;11.60;99.90
25949;DHT22;13961;51.178;4.448;2023-12-29T14:55:03;11.70;99.90
25949;DHT22;13961;51.178;4.448;2023-12-29T14:57:29;11.60;99.90
25949;DHT22;13961;51.178;4.448;2023-12-29T14:59:55;11.50;99.90
25949;DHT22;13961;51.178;4.448;2023-12-29T15:02:20;11.40;99.90
25949;DHT22;13961;51.178;4.448;2023-12-29T15:04:46;11.50;99.90
25949;DHT22;13961;51.178;4.448;2023-12-29T15:07:13;11.40;99.90
25949;DHT22;13961;51.178;4.448;2023-12-29T15:09:38;11.40;99.90
25949;DHT22;13961;51.178;4.448;2023-12-29T15:12:04;11.40;99.90
25949;DHT22;13961;51.178;4.448;2023-12-29T15:14:30;11.40;99.90
25949;DHT22;13961;51.178;4.448;2023-12-29T15:16:56;11.50;99.90
25949;DHT22;13961;51.178;4.448;2023-12-29T15:19:22;11.50;99.90
25949;DHT22;13961;51.178;4.448;2023-12-29T15:21:48;11.60;99.90
25949;DHT22;13961;51.178;4.448;2023-12-29T15:24:21;11.70;99.90
25949;DHT22;13961;51.178;4.448;2023-12-29T15:26:47;11.70;99.90
25949;DHT22;13961;51.178;4.448;2023-12-29T15:29:13;11.60;99.90
25949;DHT22;13961;51.178;4.448;2023-12-29T15:31:42;11.50;99.90
25949;DHT22;13961;51.178;4.448;2023-12-29T15:34:09;11.60;99.90
25949;DHT22;13961;51.178;4.448;2023-12-29T15:36:34;11.60;99.90
25949;DHT22;13961;51.178;4.448;2023-12-29T15:39:00;11.60;99.90
25949;DHT22;13961;51.178;4.448;2023-12-29T15:41:26;11.60;99.90
25949;DHT22;13961;51.178;4.448;2023-12-29T15:43:52;11.60;99.90
25949;DHT22;13961;51.178;4.448;2023-12-29T15:46:18;11.60;99.90
25949;DHT22;13961;51.178;4.448;2023-12-29T15:48:48;11.70;99.90
25949;DHT22;13961;51.178;4.448;2023-12-29T15:51:14;11.70;99.90
25949;DHT22;13961;51.178;4.448;2023-12-29T15:53:40;11.80;99.90